Meteo Giornale » Osservazioni meteo Italia » Brescia-Ghedi

ore: 16:55 - Osservazioni Meteo Brescia-Ghedi
Lat. 45° 25' N Lon. 10° 17' E Alt. 102 metri s.l.m.

sereno Europe/Rome

6 °C

Sereno

Temp. 24 Ore

-1 °C

9 °C

Nord

1.8 Km/h

Dew point -5 °C

Umidità 45 %

Visibilità  10 Km

Il sole sorge alle ore 07:47

Il sole tramonta alle ore 16:37

Data e Ora Cielo e Fenomeni T °C DP °C Um. % Pres. hPa Vis. km Vento km/h
Oggi h: 16:55 sereno Sereno 6 -5 45 1019 10 N 1.8
Oggi h: 15:55 sereno Sereno 8 -3 45 1019 10 N 3.7
Oggi h: 14:55 sereno Sereno 9 -3 42 1019 10 N 3.7
Oggi h: 13:55 sereno Sereno 9 -2 45 1019 10 N 5.5
Oggi h: 12:55 sereno Sereno 8 -2 49 1019 10 N 3.7
Oggi h: 11:55 sereno Sereno 8 -1 52 1020 10 N 5.5
Oggi h: 10:55 sereno Sereno 7 -1 56 1020 10 N 3.7
Oggi h: 09:55 sereno Sereno 4 -1 69 1020 10 N 3.7
Oggi h: 08:55 sereno Sereno 0 -3 80 1019 10 N/NO 7.4
Oggi h: 06:55 sereno Sereno -1 -5 74 1019 10 O/NO 7.4
Oggi h: 05:55 sereno Sereno -0 -4 74 1019 10 N 3.7
Oggi h: 04:55 sereno Sereno -0 -5 68 1019 10 N 5.5
Oggi h: 03:55 sereno Sereno -0 -3 80 1019 10 N 3.7
Oggi h: 02:55 sereno Sereno -0 -4 74 1019 10 N 3.7
Oggi h: 01:55 sereno Sereno -0 -4 74 1019 10 N 5.5
Oggi h: 00:55 sereno Sereno 0 -4 74 1019 10 N 3.7
Ieri h: 23:55 sereno Sereno 2 -3 69 1019 2 N 5.5
Ieri h: 22:55 sereno Sereno 1 -2 80 1019 10 NE 11.1
Ieri h: 21:55 sereno Sereno 1 -2 80 1019 10 N 7.4
Ieri h: 20:55 sereno Sereno 2 -1 80 1019 10 N 5.5
Ieri h: 19:55 sereno Sereno 1 -2 80 1018 10 N/NE 7.4
Ieri h: 18:55 sereno Sereno 2 -2 74 1018 10 N 5.5
Ieri h: 17:55 sereno Sereno 3 -3 64 1018 10 N 3.7